Time;durP1;ratioP1;P1;durP2;ratioP2;P2;SDS_P1;SDS_P2;PMS_P1;PMS_P2;Temp;Humidity;BMP_temperature;BMP_pressure;BME280_temperature;BME280_humidity;BME280_pressure;Samples;Min_cycle;Max_cycle;Signal;HPM_P1;HPM_P2
2021/04/26 00:53:04;;;;;;;6.30;3.47;;;7.70;58.30;;;;;;4879223;29;20213;-83
2021/04/26 04:59:49;;;;;;;8.15;5.00;;;5.00;85.90;;;;;;5684055;23;20244;-83
2021/04/26 06:05:23;;;;;;;4.93;4.50;;;6.70;78.00;;;;;;4968477;29;20228;-85
2021/04/26 06:07:49;;;;;;;6.63;5.68;;;6.90;77.50;;;;;;4969132;29;20679;-84
2021/04/26 06:10:15;;;;;;;5.10;4.70;;;7.00;77.60;;;;;;4960306;28;20253;-85
2021/04/26 06:12:42;;;;;;;5.60;4.80;;;7.10;77.00;;;;;;4948195;29;20209;-83
2021/04/26 06:15:08;;;;;;;7.78;6.97;;;7.10;76.40;;;;;;4945982;29;20205;-84
2021/04/26 06:17:36;;;;;;;6.95;6.20;;;7.10;75.90;;;;;;4946001;29;20213;-83
2021/04/26 06:20:04;;;;;;;6.80;5.80;;;7.20;75.70;;;;;;4945364;29;20268;-84
2021/04/26 06:22:31;;;;;;;6.03;5.43;;;7.30;75.60;;;;;;4944878;29;20209;-83
2021/04/26 06:24:58;;;;;;;7.95;6.30;;;7.40;75.40;;;;;;4945939;29;20704;-82
2021/04/26 06:27:24;;;;;;;5.43;5.03;;;7.40;74.70;;;;;;4947867;29;20218;-85
2021/04/26 06:29:51;;;;;;;9.43;5.30;;;7.50;74.90;;;;;;4952578;29;20282;-84
2021/04/26 06:32:17;;;;;;;7.43;5.95;;;7.60;74.80;;;;;;4960272;28;20197;-82
2021/04/26 06:34:43;;;;;;;5.80;5.30;;;7.70;74.80;;;;;;4957771;29;20257;-82
2021/04/26 06:37:09;;;;;;;6.03;5.43;;;7.80;74.10;;;;;;4943912;29;20209;-84
2021/04/26 06:39:36;;;;;;;8.45;6.25;;;7.90;73.40;;;;;;4942370;29;20282;-82
2021/04/26 06:42:03;;;;;;;5.13;4.72;;;7.90;73.40;;;;;;4941566;29;20217;-81
2021/04/26 06:44:29;;;;;;;5.72;5.22;;;8.00;73.50;;;;;;4941156;29;20552;-83
2021/04/26 06:46:55;;;;;;;6.97;5.97;;;8.10;73.00;;;;;;4942481;29;20218;-84
2021/04/26 06:49:21;;;;;;;6.63;5.88;;;8.20;72.40;;;;;;4942884;29;20214;-84
2021/04/26 06:51:48;;;;;;;6.10;5.60;;;8.20;71.40;;;;;;4942341;29;20244;-83
2021/04/26 06:54:14;;;;;;;5.93;5.35;;;8.30;71.40;;;;;;4946761;29;20460;-81
2021/04/26 06:56:42;;;;;;;7.70;5.85;;;8.40;71.60;;;;;;4941748;29;20599;-83
2021/04/26 06:59:09;;;;;;;6.70;6.10;;;8.40;71.20;;;;;;4937387;29;20222;-84
2021/04/26 07:01:35;;;;;;;6.88;6.10;;;8.40;70.80;;;;;;4936537;29;20206;-87
2021/04/26 07:04:03;;;;;;;7.97;6.20;;;8.50;70.70;;;;;;4940122;29;20218;-86
2021/04/26 07:06:32;;;;;;;5.55;5.15;;;8.50;70.80;;;;;;4937999;29;20218;-87
2021/04/26 07:09:08;;;;;;;8.10;7.40;;;8.60;70.30;;;;;;4938314;29;20748;-87
2021/04/26 07:11:37;;;;;;;8.00;5.77;;;8.60;70.00;;;;;;4937856;29;20577;-83
2021/04/26 07:14:16;;;;;;;6.20;5.60;;;8.50;70.10;;;;;;4937703;29;20466;-85
2021/04/26 07:16:42;;;;;;;6.53;5.05;;;8.60;70.90;;;;;;4937939;29;20443;-86
2021/04/26 07:21:53;;;;;;;5.50;5.00;;;8.80;71.10;;;;;;4915324;29;20884;-85
2021/04/26 07:24:19;;;;;;;6.60;5.63;;;8.80;71.00;;;;;;4936259;29;20459;-86
2021/04/26 07:26:45;;;;;;;6.23;5.63;;;8.90;71.20;;;;;;4933502;29;20455;-86
2021/04/26 07:29:13;;;;;;;6.97;6.30;;;9.10;71.00;;;;;;4936374;29;20516;-86
2021/04/26 07:31:39;;;;;;;6.77;5.23;;;9.20;70.00;;;;;;4933976;29;20496;-85
2021/04/26 07:34:05;;;;;;;8.83;6.30;;;9.10;69.00;;;;;;4922294;29;20472;-87
2021/04/26 07:36:31;;;;;;;6.70;5.67;;;9.10;68.20;;;;;;4923790;29;20500;-85
2021/04/26 07:38:58;;;;;;;6.47;5.97;;;9.20;68.90;;;;;;4942174;29;20455;-86
2021/04/26 07:41:27;;;;;;;6.57;5.80;;;9.20;68.50;;;;;;4939217;29;21071;-87
2021/04/26 07:43:54;;;;;;;10.43;5.80;;;9.30;68.00;;;;;;4942085;29;20472;-87
2021/04/26 07:46:21;;;;;;;5.40;4.90;;;9.30;67.30;;;;;;4943794;29;20505;-85
2021/04/26 07:48:47;;;;;;;6.03;5.37;;;9.30;66.60;;;;;;4940781;29;20467;-86
2021/04/26 07:51:17;;;;;;;6.47;5.90;;;9.30;67.70;;;;;;4939039;29;20503;-87
2021/04/26 07:53:43;;;;;;;6.00;5.47;;;9.50;67.40;;;;;;4940259;29;20534;-87
2021/04/26 07:56:10;;;;;;;7.90;4.90;;;9.70;68.80;;;;;;4944291;29;21173;-87
2021/04/26 07:58:36;;;;;;;7.17;6.47;;;9.80;69.00;;;;;;4946029;29;20471;-87
2021/04/26 08:01:02;;;;;;;7.77;5.50;;;9.80;66.90;;;;;;4942017;29;20496;-87
2021/04/26 08:03:34;;;;;;;5.90;5.40;;;9.90;67.30;;;;;;4945092;29;20477;-84
2021/04/26 08:06:00;;;;;;;8.80;5.10;;;10.00;65.20;;;;;;4947827;29;21021;-86
2021/04/26 08:08:26;;;;;;;6.13;5.17;;;10.10;66.60;;;;;;4948536;29;20456;-86
2021/04/26 08:10:53;;;;;;;7.60;5.60;;;10.20;66.00;;;;;;4945495;29;20947;-85
2021/04/26 08:13:19;;;;;;;5.73;5.20;;;10.40;65.20;;;;;;4945382;29;20460;-85
2021/04/26 08:15:47;;;;;;;5.87;5.37;;;10.50;64.20;;;;;;4945146;29;20453;-85
2021/04/26 08:18:13;;;;;;;7.57;5.87;;;10.60;63.90;;;;;;4942597;29;20481;-85
2021/04/26 08:20:40;;;;;;;6.53;6.00;;;10.60;63.40;;;;;;4944322;29;20565;-85
2021/04/26 08:23:12;;;;;;;6.80;5.37;;;10.50;62.50;;;;;;4941881;29;20472;-87
2021/04/26 08:25:39;;;;;;;6.93;5.90;;;10.50;63.00;;;;;;4941022;29;20452;-85
2021/04/26 08:28:05;;;;;;;8.53;6.80;;;10.60;64.00;;;;;;4943375;29;20540;-85
2021/04/26 08:30:32;;;;;;;7.50;6.70;;;10.60;64.10;;;;;;4944423;29;20496;-85
2021/04/26 08:32:58;;;;;;;9.00;6.27;;;10.60;62.80;;;;;;4924041;29;20457;-86
2021/04/26 08:35:25;;;;;;;6.33;5.83;;;10.70;62.80;;;;;;4922317;29;20458;-86
2021/04/26 08:37:52;;;;;;;6.20;5.60;;;10.60;62.10;;;;;;4923813;29;20468;-86
2021/04/26 08:40:18;;;;;;;7.40;6.80;;;10.50;62.80;;;;;;4922769;29;20482;-87
2021/04/26 08:42:44;;;;;;;5.57;5.07;;;10.70;64.30;;;;;;4922283;29;20461;-87
2021/04/26 08:45:12;;;;;;;7.30;6.60;;;10.90;64.60;;;;;;4922633;29;20464;-87
2021/04/26 08:47:40;;;;;;;5.63;5.20;;;11.10;64.30;;;;;;4922311;29;20471;-85
2021/04/26 08:50:08;;;;;;;6.00;5.40;;;11.20;63.60;;;;;;4924500;29;20501;-86
2021/04/26 08:52:34;;;;;;;5.93;5.53;;;11.30;62.80;;;;;;4924813;29;20553;-85
2021/04/26 08:55:02;;;;;;;7.43;6.63;;;11.30;62.00;;;;;;4922718;29;20573;-86
2021/04/26 08:57:29;;;;;;;6.77;5.93;;;11.10;61.10;;;;;;4923133;29;20470;-86
2021/04/26 08:59:55;;;;;;;5.90;5.30;;;11.30;62.30;;;;;;4927122;29;20956;-85
2021/04/26 09:02:21;;;;;;;6.20;5.63;;;11.50;62.30;;;;;;4925952;29;20454;-85
2021/04/26 09:04:50;;;;;;;7.97;6.20;;;11.70;62.50;;;;;;4924675;29;20891;-86
2021/04/26 09:07:17;;;;;;;8.10;6.90;;;11.80;61.30;;;;;;4924042;29;20447;-85
2021/04/26 09:09:47;;;;;;;7.50;6.70;;;11.90;60.10;;;;;;4923045;29;20480;-86
2021/04/26 09:12:24;;;;;;;6.53;5.93;;;11.90;59.60;;;;;;4921795;29;20490;-86
2021/04/26 09:14:51;;;;;;;6.43;5.90;;;11.80;59.40;;;;;;4922805;29;20461;-86
2021/04/26 09:17:33;;;;;;;12.10;7.00;;;12.00;60.30;;;;;;4923312;29;20458;-86
2021/04/26 09:20:03;;;;;;;7.13;6.53;;;12.00;60.70;;;;;;4922579;29;20506;-86
2021/04/26 09:22:42;;;;;;;6.97;6.47;;;12.20;60.40;;;;;;4925701;29;20447;-87
2021/04/26 09:25:31;;;;;;;6.53;6.03;;;12.30;59.80;;;;;;4925374;29;20548;-86
2021/04/26 09:28:05;;;;;;;6.40;5.80;;;12.50;60.70;;;;;;4926870;29;20546;-86
2021/04/26 09:30:50;;;;;;;5.97;5.40;;;12.50;59.20;;;;;;4926138;29;20497;-87
2021/04/26 09:33:29;;;;;;;6.53;6.03;;;12.40;59.20;;;;;;4925982;29;20461;-86
2021/04/26 09:36:01;;;;;;;5.70;5.20;;;12.50;59.30;;;;;;4926780;29;21051;-86
2021/04/26 09:38:28;;;;;;;7.20;6.50;;;12.50;59.60;;;;;;4928453;29;20520;-86
2021/04/26 09:41:08;;;;;;;5.70;5.20;;;12.70;59.20;;;;;;4927189;29;20470;-85
2021/04/26 09:43:36;;;;;;;6.03;5.30;;;12.90;59.00;;;;;;4927789;29;20453;-86
2021/04/26 09:46:02;;;;;;;5.63;5.13;;;13.10;58.90;;;;;;4925662;29;20453;-85
2021/04/26 09:48:40;;;;;;;6.10;5.23;;;13.30;59.30;;;;;;4926086;29;20469;-88
2021/04/26 09:51:17;;;;;;;8.70;7.80;;;13.50;59.90;;;;;;4921112;29;20988;-86
2021/04/26 09:53:53;;;;;;;6.47;5.80;;;13.70;57.10;;;;;;4921482;29;20453;-86
2021/04/26 09:56:23;;;;;;;8.60;8.03;;;13.70;55.10;;;;;;4923171;29;20473;-86
2021/04/26 09:58:52;;;;;;;6.20;5.40;;;13.70;55.80;;;;;;4927642;29;20511;-86
2021/04/26 10:01:18;;;;;;;10.87;7.80;;;13.80;56.30;;;;;;4940875;29;20982;-85
2021/04/26 10:03:45;;;;;;;6.70;5.60;;;13.80;55.90;;;;;;4966197;28;20477;-86
2021/04/26 10:06:36;;;;;;;6.30;5.73;;;13.80;55.20;;;;;;4960227;28;20462;-86
2021/04/26 10:09:06;;;;;;;5.90;5.40;;;14.00;55.90;;;;;;4941150;29;20471;-85
2021/04/26 10:11:34;;;;;;;6.00;5.50;;;14.20;55.20;;;;;;4948043;29;20492;-84
2021/04/26 10:14:04;;;;;;;6.40;5.90;;;14.20;54.20;;;;;;4960434;28;20677;-83
2021/04/26 10:16:44;;;;;;;6.57;5.87;;;14.40;56.40;;;;;;4960883;28;20427;-84
2021/04/26 10:19:32;;;;;;;8.03;5.80;;;14.60;56.90;;;;;;4940460;29;20455;-84
2021/04/26 10:21:59;;;;;;;6.03;5.43;;;14.80;55.50;;;;;;4938231;29;20533;-85
2021/04/26 10:24:27;;;;;;;5.97;5.43;;;15.20;54.20;;;;;;4939040;29;20871;-84
2021/04/26 10:26:55;;;;;;;7.73;5.90;;;15.20;52.30;;;;;;4939484;29;20447;-85
2021/04/26 10:29:26;;;;;;;6.53;5.93;;;15.40;54.10;;;;;;4939021;29;20467;-84
2021/04/26 10:32:07;;;;;;;6.50;5.50;;;15.30;51.20;;;;;;4938078;29;20911;-84
2021/04/26 10:34:36;;;;;;;5.37;4.87;;;15.50;51.60;;;;;;4938254;29;20455;-84
2021/04/26 10:37:04;;;;;;;6.40;5.10;;;15.70;51.50;;;;;;4937901;29;20466;-84
2021/04/26 10:39:32;;;;;;;6.43;5.83;;;15.90;52.50;;;;;;4937734;29;20526;-85
2021/04/26 10:42:05;;;;;;;6.77;5.83;;;16.10;52.00;;;;;;4938374;29;20497;-85
2021/04/26 10:44:55;;;;;;;5.43;4.93;;;16.30;50.50;;;;;;4940486;29;21036;-85
2021/04/26 10:47:34;;;;;;;6.87;5.90;;;16.20;47.90;;;;;;4940249;29;20522;-84
2021/04/26 10:50:38;;;;;;;8.07;6.27;;;16.50;50.20;;;;;;4938627;29;21033;-85
2021/04/26 10:53:05;;;;;;;6.53;5.77;;;16.70;49.10;;;;;;4939618;29;20463;-85
2021/04/26 10:55:51;;;;;;;5.80;5.30;;;16.70;47.30;;;;;;4938259;29;20452;-85
2021/04/26 10:58:31;;;;;;;5.87;5.47;;;16.90;46.50;;;;;;4938554;29;20969;-85
2021/04/26 11:00:59;;;;;;;5.50;5.00;;;17.10;45.80;;;;;;4938062;29;20560;-85
2021/04/26 11:03:36;;;;;;;5.93;5.30;;;17.30;48.10;;;;;;4937504;29;20837;-85
2021/04/26 11:06:11;;;;;;;5.87;5.27;;;17.70;47.20;;;;;;4937741;29;20978;-85
2021/04/26 11:08:40;;;;;;;8.00;4.50;;;18.30;46.70;;;;;;4937313;29;20864;-86
2021/04/26 11:11:12;;;;;;;7.97;5.27;;;18.70;44.90;;;;;;4937418;29;20481;-85
2021/04/26 11:13:46;;;;;;;6.03;5.43;;;19.10;44.90;;;;;;4936653;29;20469;-85
2021/04/26 11:16:14;;;;;;;5.60;5.10;;;19.60;44.40;;;;;;4937152;29;20459;-86
2021/04/26 11:18:42;;;;;;;6.57;5.80;;;20.20;42.90;;;;;;4938601;29;20458;-86
2021/04/26 11:21:10;;;;;;;5.83;5.43;;;20.70;42.30;;;;;;4938840;29;20498;-86
2021/04/26 11:23:44;;;;;;;5.57;5.10;;;21.30;40.70;;;;;;4936744;29;20447;-86
2021/04/26 11:26:16;;;;;;;5.73;5.23;;;21.70;39.70;;;;;;4936919;29;20525;-85
2021/04/26 11:29:04;;;;;;;5.33;5.03;;;21.90;38.40;;;;;;4936762;29;20453;-86
2021/04/26 11:32:03;;;;;;;5.60;5.10;;;22.30;39.80;;;;;;4936556;29;20431;-85
2021/04/26 20:33:47;;;;;;;4.17;3.87;;;11.40;38.60;;;;;;4822319;29;20508;-85
2021/04/26 20:50:02;;;;;;;3.87;3.50;;;11.10;39.00;;;;;;4795215;29;20557;-85
2021/04/26 20:53:14;;;;;;;3.77;3.47;;;11.00;39.30;;;;;;4903611;29;20493;-86
2021/04/26 20:56:34;;;;;;;3.93;2.90;;;10.90;39.70;;;;;;4903264;29;20494;-85
2021/04/26 21:00:12;;;;;;;3.00;2.70;;;10.80;39.70;;;;;;4901474;29;20462;-85
2021/04/26 21:07:06;;;;;;;5.63;3.30;;;10.60;39.90;;;;;;4891084;29;20450;-85
2021/04/26 21:10:17;;;;;;;3.93;2.83;;;10.60;40.50;;;;;;4903778;29;20970;-85
2021/04/26 21:33:00;;;;;;;4.00;3.30;;;10.00;41.80;;;;;;4854669;29;20473;-85
2021/04/26 21:35:35;;;;;;;3.10;2.80;;;9.90;42.60;;;;;;4821458;29;20485;-85
2021/04/26 21:38:01;;;;;;;3.10;2.90;;;9.80;42.40;;;;;;4905113;29;20490;-85
2021/04/26 22:32:24;;;;;;;3.10;2.90;;;9.60;39.40;;;;;;4777076;30;20474;-85
2021/04/26 22:39:31;;;;;;;2.73;2.53;;;9.60;39.70;;;;;;4714344;30;20251;-85
2021/04/26 22:53:52;;;;;;;3.00;2.70;;;9.40;39.30;;;;;;4857568;29;20868;-85
2021/04/26 23:24:28;;;;;;;5.90;2.57;;;8.70;39.90;;;;;;4772650;30;20516;-85
2021/04/26 23:31:48;;;;;;;;;;;;;;;;;;;;;
